createdAt,value
2018-12-10T00:00:48.984Z,0.88
2018-12-10T00:01:53.035Z,1.22
2018-12-10T00:04:44.764Z,0.60
2018-12-10T00:05:48.744Z,0.68
2018-12-10T00:06:52.593Z,1.10
2018-12-10T00:07:56.674Z,0.60
2018-12-10T00:09:00.483Z,0.70
2018-12-10T00:10:05.052Z,0.82
2018-12-10T00:11:08.858Z,1.12
2018-12-10T00:12:12.886Z,0.53
2018-12-10T00:13:16.759Z,0.80
2018-12-10T00:14:20.750Z,0.50
2018-12-10T00:15:24.741Z,0.90
2018-12-10T00:16:28.594Z,0.80
2018-12-10T00:17:32.701Z,1.20
2018-12-10T00:18:36.740Z,0.90
2018-12-10T00:19:40.610Z,1.17
2018-12-10T00:20:44.814Z,0.98
2018-12-10T00:21:48.909Z,1.50
2018-12-10T00:22:52.953Z,1.12
2018-12-10T00:23:57.081Z,1.60
2018-12-10T00:25:02.080Z,1.75
2018-12-10T00:26:06.011Z,1.60
2018-12-10T00:27:11.637Z,1.37
2018-12-10T00:28:16.079Z,1.75
2018-12-10T00:29:20.289Z,1.35
2018-12-10T00:30:24.169Z,1.60
2018-12-10T00:31:28.140Z,1.40
2018-12-10T00:32:32.437Z,1.60
2018-12-10T00:33:39.470Z,1.22
2018-12-10T00:34:43.647Z,1.55
2018-12-10T00:35:47.609Z,1.67
2018-12-10T00:36:52.696Z,1.70
2018-12-10T00:37:56.706Z,1.85
2018-12-10T00:39:00.842Z,1.15
2018-12-10T00:40:05.857Z,1.47
2018-12-10T00:41:10.245Z,2.33
2018-12-10T00:42:14.160Z,1.95
2018-12-10T00:43:18.078Z,1.30
2018-12-10T00:44:21.957Z,1.55
2018-12-10T00:45:27.727Z,2.02
2018-12-10T00:46:31.586Z,1.60
2018-12-10T00:47:35.536Z,1.67
2018-12-10T00:48:39.404Z,1.90
2018-12-10T00:49:43.346Z,1.67
2018-12-10T00:50:47.323Z,1.17
2018-12-10T00:51:52.009Z,1.80
2018-12-10T00:52:56.904Z,1.40
2018-12-10T00:54:01.205Z,1.52
2018-12-10T00:55:05.128Z,1.10
2018-12-10T00:56:10.034Z,1.20
2018-12-10T00:57:15.183Z,1.50
2018-12-10T00:58:19.683Z,1.17
2018-12-10T00:59:24.387Z,1.40
2018-12-10T01:00:28.425Z,0.80
2018-12-10T01:01:32.454Z,1.05
2018-12-10T01:02:36.195Z,1.27
2018-12-10T01:03:40.065Z,1.25
2018-12-10T01:04:44.166Z,0.93
2018-12-10T01:05:48.006Z,0.90
2018-12-10T01:06:51.808Z,1.17
2018-12-10T01:07:55.717Z,1.12
2018-12-10T01:08:59.898Z,0.93
2018-12-10T01:10:05.040Z,1.22
2018-12-10T01:11:08.900Z,1.10
2018-12-10T01:12:12.844Z,1.07
2018-12-10T01:13:17.002Z,1.50
2018-12-10T01:14:21.520Z,0.90
2018-12-10T01:15:25.762Z,1.22
2018-12-10T01:16:30.772Z,1.00
2018-12-10T01:17:34.784Z,1.37
2018-12-10T01:18:38.753Z,1.00
2018-12-10T01:19:42.796Z,1.50
2018-12-10T01:20:46.875Z,1.52
2018-12-10T01:21:51.760Z,0.98
2018-12-10T01:22:55.898Z,1.10
2018-12-10T01:23:59.732Z,1.60
2018-12-10T01:25:03.877Z,1.00
2018-12-10T01:26:07.919Z,1.60
2018-12-10T01:27:11.854Z,1.10
2018-12-10T01:28:15.842Z,1.22
2018-12-10T01:29:19.834Z,1.70
2018-12-10T01:30:23.671Z,1.52
2018-12-10T01:31:27.921Z,1.32
2018-12-10T01:32:31.962Z,1.40
2018-12-10T01:33:36.094Z,1.60
2018-12-10T01:34:39.761Z,1.30
2018-12-10T01:35:43.986Z,1.70
2018-12-10T01:36:47.924Z,1.30
2018-12-10T01:37:51.787Z,1.30
2018-12-10T01:38:55.645Z,1.50
2018-12-10T01:39:59.787Z,1.72
2018-12-10T01:41:03.617Z,1.25
2018-12-10T01:42:07.615Z,1.50
2018-12-10T01:43:16.732Z,1.77
2018-12-10T01:44:20.687Z,1.65
2018-12-10T01:45:24.376Z,1.40
2018-12-10T01:46:28.169Z,2.37
2018-12-10T01:47:32.027Z,1.57
2018-12-10T01:48:35.849Z,1.70
2018-12-10T01:49:39.911Z,1.80
2018-12-10T01:50:43.828Z,1.50
2018-12-10T01:51:47.907Z,1.95
2018-12-10T01:52:52.009Z,1.70
2018-12-10T01:53:56.050Z,1.60
2018-12-10T01:54:59.986Z,2.27
2018-12-10T01:56:03.869Z,1.90
2018-12-10T01:57:08.120Z,1.60
2018-12-10T01:58:12.181Z,1.70
2018-12-10T01:59:16.073Z,1.90
2018-12-10T02:00:20.074Z,2.00
2018-12-10T02:01:24.204Z,1.40
2018-12-10T02:02:28.133Z,1.77
2018-12-10T02:03:32.557Z,1.45
2018-12-10T02:04:36.944Z,2.10
2018-12-10T02:05:41.018Z,1.65
2018-12-10T02:06:44.877Z,1.40
2018-12-10T02:07:48.783Z,1.50
2018-12-10T02:08:52.675Z,1.70
2018-12-10T02:09:56.586Z,1.40
2018-12-10T02:11:00.854Z,1.65
2018-12-10T02:12:05.052Z,1.20
2018-12-10T02:13:09.025Z,1.80
2018-12-10T02:14:12.603Z,1.35
2018-12-10T02:15:15.966Z,1.20
2018-12-10T02:16:19.428Z,1.47
2018-12-10T02:17:23.934Z,1.05
2018-12-10T02:18:27.584Z,0.80
2018-12-10T02:19:31.671Z,0.60
2018-12-10T02:20:35.630Z,0.88
2018-12-10T02:21:40.557Z,0.80
2018-12-10T02:22:44.557Z,0.80
2018-12-10T02:23:48.658Z,0.70
2018-12-10T02:24:52.636Z,0.65
2018-12-10T02:25:57.082Z,0.60
2018-12-10T02:27:02.002Z,0.60
2018-12-10T02:28:06.069Z,0.72
2018-12-10T02:29:14.168Z,0.45
2018-12-10T02:30:18.407Z,0.50
2018-12-10T02:31:22.368Z,0.80
2018-12-10T02:32:26.070Z,0.40
2018-12-10T02:33:29.929Z,0.50
2018-12-10T02:34:34.075Z,0.50
2018-12-10T02:35:38.354Z,0.40
2018-12-10T02:36:43.959Z,0.53
2018-12-10T02:37:48.220Z,0.53
2018-12-10T02:38:52.118Z,0.45
2018-12-10T02:39:56.072Z,0.57
2018-12-10T02:40:59.913Z,0.30
2018-12-10T02:42:04.374Z,0.40
2018-12-10T02:43:09.521Z,0.62
2018-12-10T02:44:13.377Z,0.47
2018-12-10T02:45:17.393Z,0.30
2018-12-10T02:46:21.443Z,0.40
2018-12-10T02:47:25.703Z,0.40
2018-12-10T02:48:29.705Z,0.40
2018-12-10T02:49:33.954Z,0.40
2018-12-10T02:50:37.967Z,0.40
2018-12-10T02:51:42.337Z,0.30
2018-12-10T02:52:46.276Z,0.40
2018-12-10T02:53:50.376Z,0.30
2018-12-10T02:54:54.974Z,0.40
2018-12-10T02:55:58.959Z,0.65
2018-12-10T02:57:03.059Z,0.50
2018-12-10T02:58:07.537Z,0.40
2018-12-10T02:59:11.648Z,0.70
2018-12-10T03:00:15.555Z,0.50
2018-12-10T03:01:19.803Z,0.40
2018-12-10T03:02:24.019Z,0.40
2018-12-10T03:03:28.385Z,0.53
2018-12-10T03:04:32.411Z,0.98
2018-12-10T03:05:36.619Z,0.50
2018-12-10T03:06:40.606Z,0.55
2018-12-10T03:07:44.770Z,0.75
2018-12-10T03:08:49.752Z,0.60
2018-12-10T03:09:53.812Z,0.75
2018-12-10T03:10:57.825Z,0.88
2018-12-10T03:12:02.175Z,0.80
2018-12-10T03:13:06.182Z,0.78
2018-12-10T03:14:10.037Z,0.80
2018-12-10T03:15:14.472Z,0.80
2018-12-10T03:16:18.595Z,0.95
2018-12-10T03:17:22.507Z,0.60
2018-12-10T03:18:26.767Z,0.68
2018-12-10T03:19:30.818Z,0.62
2018-12-10T03:20:35.617Z,0.70
2018-12-10T03:21:39.618Z,0.60
2018-12-10T03:22:43.741Z,1.85
2018-12-10T03:23:47.583Z,0.65
2018-12-10T03:24:51.680Z,0.60
2018-12-10T03:25:55.371Z,0.90
2018-12-10T03:26:59.182Z,0.62
2018-12-10T03:28:03.331Z,0.60
2018-12-10T03:29:07.103Z,0.65
2018-12-10T03:30:12.050Z,0.70
2018-12-10T03:31:16.259Z,0.98
2018-12-10T03:32:20.134Z,1.12
2018-12-10T03:33:24.106Z,0.42
2018-12-10T03:34:27.915Z,0.60
2018-12-10T03:35:31.800Z,0.80
2018-12-10T03:36:35.765Z,0.90
2018-12-10T03:37:39.939Z,0.60
2018-12-10T03:38:43.731Z,0.50
2018-12-10T03:39:47.727Z,0.70
2018-12-10T03:40:51.423Z,0.55
2018-12-10T03:41:55.312Z,0.60
2018-12-10T03:42:59.398Z,0.57
2018-12-10T03:44:03.670Z,0.53
2018-12-10T03:45:08.350Z,1.07
2018-12-10T03:46:12.650Z,0.57
2018-12-10T03:47:16.694Z,0.90
2018-12-10T03:48:21.318Z,1.00
2018-12-10T03:49:25.165Z,0.88
2018-12-10T03:50:28.960Z,0.72
2018-12-10T03:51:32.807Z,0.90
2018-12-10T03:52:36.692Z,0.72
2018-12-10T03:53:40.926Z,0.80
2018-12-10T03:54:45.180Z,0.60
2018-12-10T03:55:49.146Z,0.90
2018-12-10T03:56:53.113Z,0.98
2018-12-10T03:57:56.761Z,0.93
2018-12-10T03:59:01.003Z,0.70
2018-12-10T04:00:05.291Z,0.68
2018-12-10T04:01:09.507Z,0.70
2018-12-10T04:02:13.346Z,0.70
2018-12-10T04:03:17.193Z,0.95
2018-12-10T04:04:22.303Z,0.70
2018-12-10T04:05:26.193Z,0.70
2018-12-10T04:06:29.964Z,0.70
2018-12-10T04:07:33.711Z,0.70
2018-12-10T04:08:37.723Z,0.72
2018-12-10T04:09:41.391Z,0.90
2018-12-10T04:10:45.476Z,0.60
2018-12-10T04:11:50.452Z,0.60
2018-12-10T04:12:54.402Z,0.50
2018-12-10T04:13:58.491Z,0.70
2018-12-10T04:15:02.458Z,0.88
2018-12-10T04:16:06.695Z,0.82
2018-12-10T04:17:10.808Z,1.00
2018-12-10T04:18:14.853Z,0.72
2018-12-10T04:19:18.958Z,0.90
2018-12-10T04:20:23.206Z,0.72
2018-12-10T04:21:27.357Z,1.15
2018-12-10T04:22:31.547Z,0.75
2018-12-10T04:23:35.605Z,1.00
2018-12-10T04:24:39.566Z,0.90
2018-12-10T04:25:43.589Z,0.57
2018-12-10T04:26:47.498Z,0.82
2018-12-10T04:27:51.696Z,0.70
2018-12-10T04:28:56.289Z,0.60
2018-12-10T04:30:00.803Z,1.10
2018-12-10T04:31:04.878Z,1.10
2018-12-10T04:32:08.574Z,0.60
2018-12-10T04:33:12.324Z,1.30
2018-12-10T04:34:16.145Z,0.80
2018-12-10T04:35:20.815Z,0.70
2018-12-10T04:36:25.753Z,0.80
2018-12-10T04:37:29.575Z,1.10
2018-12-10T04:38:33.911Z,0.95
2018-12-10T04:39:37.887Z,1.10
2018-12-10T04:40:42.151Z,0.82
2018-12-10T04:41:46.141Z,0.88
2018-12-10T04:42:50.192Z,1.05
2018-12-10T04:43:55.141Z,1.05
2018-12-10T04:44:59.019Z,0.65
2018-12-10T04:46:03.258Z,0.80
2018-12-10T04:47:07.474Z,0.95
2018-12-10T04:48:11.368Z,0.90
2018-12-10T04:49:15.549Z,1.00
2018-12-10T04:50:19.927Z,1.05
2018-12-10T04:51:23.887Z,0.80
2018-12-10T04:52:27.766Z,0.90
2018-12-10T04:53:31.454Z,0.78
2018-12-10T04:54:35.344Z,0.78
2018-12-10T04:55:39.129Z,0.60
2018-12-10T04:56:42.827Z,1.25
2018-12-10T04:57:46.796Z,0.90
2018-12-10T04:58:50.745Z,0.57
2018-12-10T04:59:54.455Z,0.70
2018-12-10T05:00:58.620Z,1.10
2018-12-10T05:02:03.018Z,0.95
2018-12-10T05:03:07.384Z,1.20
2018-12-10T05:04:11.416Z,0.82
2018-12-10T05:05:15.478Z,0.65
2018-12-10T05:06:19.345Z,1.27
2018-12-10T05:07:23.348Z,0.70
2018-12-10T05:08:27.089Z,0.65
2018-12-10T05:09:30.968Z,0.65
2018-12-10T05:10:34.823Z,1.10
2018-12-10T05:11:38.393Z,1.35
2018-12-10T05:12:43.014Z,0.80
2018-12-10T05:13:46.855Z,1.30
2018-12-10T05:14:51.184Z,0.95
2018-12-10T05:15:55.530Z,0.98
2018-12-10T05:16:59.421Z,0.80
2018-12-10T05:18:03.302Z,0.98
2018-12-10T05:19:07.121Z,1.00
2018-12-10T05:20:10.981Z,1.07
2018-12-10T05:21:15.181Z,1.10
2018-12-10T05:22:19.161Z,0.62
2018-12-10T05:23:23.008Z,1.05
2018-12-10T05:24:26.787Z,0.93
2018-12-10T05:25:30.568Z,1.05
2018-12-10T05:26:34.441Z,1.12
2018-12-10T05:27:38.373Z,1.47
2018-12-10T05:28:42.529Z,1.45
2018-12-10T05:29:46.469Z,1.05
2018-12-10T05:30:50.511Z,1.15
2018-12-10T05:31:54.812Z,1.30
2018-12-10T05:32:58.588Z,1.55
2018-12-10T05:34:02.335Z,1.25
2018-12-10T05:35:06.380Z,1.75
2018-12-10T05:36:10.339Z,1.30
2018-12-10T05:37:14.621Z,2.10
2018-12-10T05:38:18.716Z,1.30
2018-12-10T05:39:22.675Z,1.40
2018-12-10T05:40:26.390Z,1.20
2018-12-10T05:41:29.919Z,1.05
2018-12-10T05:42:33.790Z,1.47
2018-12-10T05:43:38.589Z,1.30
2018-12-10T05:44:42.408Z,1.70
2018-12-10T05:45:46.687Z,1.90
2018-12-10T05:46:51.089Z,1.70
2018-12-10T05:47:54.889Z,1.42
2018-12-10T05:48:58.812Z,1.55
2018-12-10T05:50:02.969Z,1.50
2018-12-10T05:51:06.907Z,2.12
2018-12-10T05:52:10.701Z,1.60
2018-12-10T05:53:14.891Z,1.92
2018-12-10T05:54:18.770Z,1.70
2018-12-10T05:55:23.130Z,1.55
2018-12-10T05:56:27.261Z,1.87
2018-12-10T05:57:31.908Z,1.77
2018-12-10T05:58:36.016Z,1.90
2018-12-10T05:59:40.302Z,1.50
2018-12-10T06:00:44.243Z,2.00
2018-12-10T06:01:48.325Z,2.20
2018-12-10T06:02:52.183Z,1.60
2018-12-10T06:03:57.542Z,1.80
2018-12-10T06:05:01.539Z,1.77
2018-12-10T06:06:05.511Z,1.32
2018-12-10T06:07:09.596Z,1.70
2018-12-10T06:08:13.537Z,1.80
2018-12-10T06:09:17.212Z,1.70
2018-12-10T06:10:21.463Z,1.60
2018-12-10T06:11:25.296Z,1.55
2018-12-10T06:12:30.017Z,1.30
2018-12-10T06:13:34.004Z,1.47
2018-12-10T06:14:37.964Z,2.33
2018-12-10T06:15:41.973Z,1.67
2018-12-10T06:16:46.405Z,2.30
2018-12-10T06:17:51.313Z,2.08
2018-12-10T06:18:55.344Z,2.25
2018-12-10T06:19:59.644Z,2.00
2018-12-10T06:21:03.207Z,1.85
2018-12-10T06:22:07.404Z,1.45
2018-12-10T06:23:11.284Z,1.55
2018-12-10T06:24:15.204Z,1.80
2018-12-10T06:25:19.095Z,1.55
2018-12-10T06:26:22.937Z,1.85
2018-12-10T06:27:26.925Z,1.55
2018-12-10T06:28:31.199Z,1.70
2018-12-10T06:29:35.226Z,2.05
2018-12-10T06:30:40.259Z,1.40
2018-12-10T06:31:43.936Z,1.40
2018-12-10T06:32:47.829Z,1.40
2018-12-10T06:33:51.750Z,1.45
2018-12-10T06:34:55.686Z,1.15
2018-12-10T06:35:59.825Z,1.95
2018-12-10T06:37:03.789Z,2.20
2018-12-10T06:38:07.952Z,1.72
2018-12-10T06:39:12.150Z,1.32
2018-12-10T06:40:16.275Z,1.37
2018-12-10T06:41:20.337Z,1.25
2018-12-10T06:42:24.341Z,1.55
2018-12-10T06:43:28.249Z,1.35
2018-12-10T06:44:32.499Z,1.75
2018-12-10T06:45:36.719Z,1.95
2018-12-10T06:46:40.804Z,1.62
2018-12-10T06:47:44.697Z,1.70
2018-12-10T06:48:48.788Z,1.77
2018-12-10T06:49:52.932Z,1.57
2018-12-10T06:50:56.837Z,1.32
2018-12-10T06:52:00.728Z,1.32
2018-12-10T06:53:04.838Z,1.70
2018-12-10T06:54:09.058Z,1.42
2018-12-10T06:55:13.157Z,1.70
2018-12-10T06:56:16.952Z,2.30
2018-12-10T06:57:20.783Z,1.80
2018-12-10T06:58:24.679Z,1.40
2018-12-10T06:59:28.692Z,1.55
2018-12-10T07:00:32.951Z,2.20
2018-12-10T07:01:36.819Z,1.67
2018-12-10T07:02:40.768Z,1.72
2018-12-10T07:03:47.012Z,2.12
2018-12-10T07:04:50.642Z,1.85
2018-12-10T07:05:54.757Z,1.15
2018-12-10T07:06:59.114Z,1.42
2018-12-10T07:08:02.994Z,1.70
2018-12-10T07:09:07.230Z,1.62
2018-12-10T07:10:11.360Z,1.50
2018-12-10T07:11:15.163Z,1.67
2018-12-10T07:12:19.391Z,1.62
2018-12-10T07:13:23.941Z,1.60
2018-12-10T07:14:28.050Z,1.52
2018-12-10T07:15:32.255Z,1.30
2018-12-10T07:16:36.421Z,1.70
2018-12-10T07:17:40.522Z,1.72
2018-12-10T07:18:44.682Z,1.40
2018-12-10T07:19:48.680Z,1.37
2018-12-10T07:20:52.944Z,1.35
2018-12-10T07:21:56.823Z,2.15
2018-12-10T07:23:00.800Z,2.60
2018-12-10T07:24:04.810Z,1.72
2018-12-10T07:25:08.615Z,1.27
2018-12-10T07:26:12.979Z,1.95
2018-12-10T07:27:16.991Z,1.77
2018-12-10T07:28:21.062Z,1.60
2018-12-10T07:29:25.204Z,1.92
2018-12-10T07:30:28.971Z,1.70
2018-12-10T07:31:32.921Z,1.35
2018-12-10T07:32:36.631Z,1.90
2018-12-10T07:33:40.486Z,1.90
2018-12-10T07:34:44.840Z,2.20
2018-12-10T07:35:48.921Z,1.70
2018-12-10T07:37:00.862Z,1.65
2018-12-10T07:38:04.921Z,1.22
2018-12-10T07:39:08.902Z,1.20
2018-12-10T07:40:12.831Z,1.50
2018-12-10T07:41:17.020Z,1.77
2018-12-10T07:42:21.382Z,2.10
2018-12-10T07:43:25.271Z,1.60
2018-12-10T07:44:29.881Z,1.90
2018-12-10T07:45:33.990Z,1.95
2018-12-10T07:46:37.780Z,1.65
2018-12-10T07:47:41.742Z,1.90
2018-12-10T07:48:45.821Z,2.27
2018-12-10T07:49:49.947Z,1.90
2018-12-10T07:50:54.334Z,1.67
2018-12-10T07:51:58.362Z,2.17
2018-12-10T07:53:02.535Z,1.75
2018-12-10T07:54:06.405Z,1.92
2018-12-10T07:55:10.225Z,1.55
2018-12-10T07:56:14.458Z,1.55
2018-12-10T07:57:18.683Z,1.55
2018-12-10T07:58:23.311Z,2.22
2018-12-10T07:59:27.077Z,2.00
2018-12-10T08:00:30.986Z,1.50
2018-12-10T08:01:34.961Z,1.62
2018-12-10T08:02:39.376Z,1.60
2018-12-10T08:03:43.451Z,1.70
2018-12-10T08:04:47.421Z,1.52
2018-12-10T08:05:51.310Z,1.62
2018-12-10T08:06:55.230Z,1.62
2018-12-10T08:07:59.200Z,1.95
2018-12-10T08:09:04.370Z,1.37
2018-12-10T08:10:08.629Z,1.62
2018-12-10T08:11:12.578Z,1.52
2018-12-10T08:12:17.568Z,1.40
2018-12-10T08:13:21.877Z,1.70
2018-12-10T08:14:26.081Z,1.60
2018-12-10T08:15:30.377Z,1.60
2018-12-10T08:16:35.098Z,1.62
2018-12-10T08:17:39.506Z,1.70
2018-12-10T08:18:43.766Z,1.52
2018-12-10T08:19:48.145Z,1.67
2018-12-10T08:20:52.454Z,1.75
2018-12-10T08:21:56.185Z,1.40
2018-12-10T08:23:00.324Z,1.80
2018-12-10T08:24:04.243Z,1.47
2018-12-10T08:25:08.457Z,1.00
2018-12-10T08:26:12.417Z,1.55
2018-12-10T08:27:17.069Z,1.77
2018-12-10T08:28:21.209Z,1.50
2018-12-10T08:29:26.043Z,1.75
2018-12-10T08:30:29.822Z,1.55
2018-12-10T08:31:33.805Z,1.82
2018-12-10T08:32:38.021Z,1.50
2018-12-10T08:33:42.090Z,1.47
2018-12-10T08:34:46.246Z,1.30
2018-12-10T08:35:50.649Z,1.77
2018-12-10T08:36:55.717Z,1.70
2018-12-10T08:37:59.789Z,1.72
2018-12-10T08:39:04.681Z,1.42
2018-12-10T08:40:08.623Z,1.50
2018-12-10T08:41:12.641Z,1.20
2018-12-10T08:42:16.786Z,1.42
2018-12-10T08:43:20.714Z,1.55
2018-12-10T08:44:24.558Z,1.40
2018-12-10T08:45:28.573Z,1.25
2018-12-10T08:46:32.347Z,1.62
2018-12-10T08:47:36.537Z,1.40
2018-12-10T08:48:40.180Z,2.42
2018-12-10T08:49:44.455Z,1.62
2018-12-10T08:50:48.685Z,1.80
2018-12-10T08:51:52.831Z,1.87
2018-12-10T08:52:57.035Z,1.65
2018-12-10T08:54:01.684Z,1.30
2018-12-10T08:55:05.731Z,1.50
2018-12-10T08:56:09.888Z,2.08
2018-12-10T08:57:13.809Z,1.45
2018-12-10T08:58:17.925Z,0.90
2018-12-10T08:59:21.747Z,1.60
2018-12-10T09:00:26.061Z,1.60
2018-12-10T09:01:30.754Z,1.55
2018-12-10T09:02:35.812Z,1.40
2018-12-10T09:03:39.893Z,1.65
2018-12-10T09:04:44.148Z,1.35
2018-12-10T09:05:48.422Z,1.75
2018-12-10T09:06:54.192Z,1.57
2018-12-10T09:07:58.035Z,1.17
2018-12-10T09:09:02.702Z,1.77
2018-12-10T09:10:07.070Z,1.40
2018-12-10T09:12:46.934Z,1.62
2018-12-10T09:13:48.774Z,1.90
2018-12-10T09:14:52.386Z,1.90
2018-12-10T09:15:56.505Z,1.52
2018-12-10T09:17:00.785Z,1.70
2018-12-10T09:18:04.627Z,1.80
2018-12-10T09:19:08.547Z,2.20
2018-12-10T09:20:12.794Z,2.33
2018-12-10T09:21:17.042Z,1.27
2018-12-10T09:22:21.293Z,2.05
2018-12-10T09:23:25.191Z,1.50
2018-12-10T09:24:29.505Z,1.75
2018-12-10T09:25:34.133Z,1.37
2018-12-10T09:26:38.365Z,1.80
2018-12-10T09:27:42.610Z,1.47
2018-12-10T09:28:46.705Z,2.30
2018-12-10T09:29:50.669Z,2.15
2018-12-10T09:30:55.568Z,1.60
2018-12-10T09:31:59.718Z,1.27
2018-12-10T09:33:03.882Z,1.85
2018-12-10T09:34:08.231Z,1.70
2018-12-10T09:35:12.210Z,1.55
2018-12-10T09:36:16.075Z,2.15
2018-12-10T09:37:20.123Z,2.20
2018-12-10T09:38:24.473Z,2.00
2018-12-10T09:39:30.329Z,1.60
2018-12-10T09:40:34.985Z,1.40
2018-12-10T09:41:38.950Z,2.08
2018-12-10T09:42:43.528Z,1.98
2018-12-10T09:43:47.663Z,2.10
2018-12-10T09:44:51.759Z,1.82
2018-12-10T09:45:55.589Z,2.12
2018-12-10T09:46:59.699Z,1.95
2018-12-10T09:48:03.841Z,1.55
2018-12-10T09:49:07.784Z,1.90
2018-12-10T09:50:11.724Z,1.82
2018-12-10T09:51:16.096Z,1.77
2018-12-10T09:52:20.004Z,1.65
2018-12-10T09:53:24.303Z,1.77
2018-12-10T09:54:28.315Z,1.52
2018-12-10T09:55:32.382Z,0.95
2018-12-10T09:56:36.708Z,1.75
2018-12-10T09:57:40.539Z,1.45
2018-12-10T09:58:44.503Z,1.20
2018-12-10T09:59:48.460Z,2.20
2018-12-10T10:00:52.234Z,1.60
2018-12-10T10:01:56.111Z,1.52
2018-12-10T10:02:59.972Z,2.58
2018-12-10T10:04:03.992Z,1.00
2018-12-10T10:05:07.984Z,2.02
2018-12-10T10:06:11.953Z,1.25
2018-12-10T10:07:16.909Z,1.30
2018-12-10T10:08:21.115Z,1.70
2018-12-10T10:09:25.143Z,1.45
2018-12-10T10:10:29.256Z,1.60
2018-12-10T10:11:34.055Z,1.30
2018-12-10T10:12:38.097Z,1.80
2018-12-10T10:13:42.168Z,1.80
2018-12-10T10:14:46.408Z,1.75
2018-12-10T10:15:50.718Z,1.92
2018-12-10T10:16:54.843Z,1.75
2018-12-10T10:17:58.983Z,1.70
2018-12-10T10:19:03.423Z,1.70
2018-12-10T10:20:08.210Z,1.42
2018-12-10T10:21:12.852Z,1.40
2018-12-10T10:22:16.693Z,1.12
2018-12-10T10:23:21.435Z,1.52
2018-12-10T10:24:25.441Z,1.07
2018-12-10T10:25:29.522Z,0.95
2018-12-10T10:26:33.352Z,1.70
2018-12-10T10:27:37.471Z,1.98
2018-12-10T10:28:41.349Z,1.35
2018-12-10T10:29:45.610Z,1.57
2018-12-10T10:30:49.578Z,1.75
2018-12-10T10:31:53.664Z,1.15
2018-12-10T10:32:57.869Z,1.52
2018-12-10T10:34:02.239Z,1.90
2018-12-10T10:35:07.213Z,1.57
2018-12-10T10:36:11.052Z,1.75
2018-12-10T10:37:15.050Z,1.75
2018-12-10T10:38:19.168Z,1.45
2018-12-10T10:39:23.197Z,1.90
2018-12-10T10:40:27.096Z,1.60
2018-12-10T10:41:31.387Z,1.70
2018-12-10T10:42:35.689Z,1.40
2018-12-10T10:43:40.199Z,1.62
2018-12-10T10:44:44.379Z,1.80
2018-12-10T10:45:48.280Z,1.57
2018-12-10T10:46:52.354Z,1.20
2018-12-10T10:47:55.897Z,1.17
2018-12-10T10:48:59.574Z,2.08
2018-12-10T10:50:03.810Z,1.30
2018-12-10T10:51:07.899Z,1.42
2018-12-10T10:52:12.564Z,1.50
2018-12-10T10:53:16.496Z,2.00
2018-12-10T10:54:20.233Z,2.20
2018-12-10T10:55:24.212Z,1.75
2018-12-10T10:56:28.694Z,1.30
2018-12-10T10:57:32.638Z,1.10
2018-12-10T10:58:36.901Z,1.37
2018-12-10T10:59:41.337Z,1.90
2018-12-10T11:00:50.992Z,1.17
2018-12-10T11:01:57.614Z,1.90
2018-12-10T11:03:07.353Z,1.42
2018-12-10T11:04:11.732Z,1.57
2018-12-10T11:05:15.762Z,1.87
2018-12-10T11:06:19.600Z,1.30
2018-12-10T11:07:23.490Z,1.87
2018-12-10T11:08:27.251Z,1.95
2018-12-10T11:09:31.279Z,1.87
2018-12-10T11:10:35.701Z,1.65
2018-12-10T11:11:39.818Z,2.45
2018-12-10T11:12:43.800Z,1.40
2018-12-10T11:13:48.625Z,1.62
2018-12-10T11:14:52.515Z,1.67
2018-12-10T11:15:56.462Z,2.22
2018-12-10T11:17:00.443Z,1.55
2018-12-10T11:18:04.742Z,1.90
2018-12-10T11:19:08.950Z,1.85
2018-12-10T11:20:13.160Z,1.85
2018-12-10T11:21:17.106Z,1.40
2018-12-10T11:22:21.216Z,2.58
2018-12-10T11:23:25.248Z,2.47
2018-12-10T11:24:28.911Z,1.98
2018-12-10T11:25:34.140Z,2.40
2018-12-10T11:26:39.420Z,1.80
2018-12-10T11:27:43.458Z,1.80
2018-12-10T11:28:47.502Z,1.50
2018-12-10T11:29:52.788Z,1.50
2018-12-10T11:30:56.968Z,2.00
2018-12-10T11:32:02.060Z,1.90
2018-12-10T11:33:05.997Z,1.98
2018-12-10T11:34:10.242Z,1.72
2018-12-10T11:35:14.177Z,1.72
2018-12-10T11:36:18.209Z,1.98
2018-12-10T11:37:22.109Z,1.72
2018-12-10T11:38:26.252Z,2.30
2018-12-10T11:39:32.521Z,1.15
2018-12-10T11:40:36.398Z,1.82
2018-12-10T11:41:40.726Z,1.42
2018-12-10T11:42:44.659Z,2.40
2018-12-10T11:43:48.776Z,1.87
2018-12-10T11:44:52.822Z,2.08
2018-12-10T11:45:57.252Z,2.15
2018-12-10T11:47:01.991Z,1.87
2018-12-10T11:48:06.531Z,1.82
2018-12-10T11:49:10.205Z,1.95
2018-12-10T11:50:14.373Z,2.00
2018-12-10T11:51:18.312Z,1.92
2018-12-10T11:52:22.643Z,2.65
2018-12-10T11:53:27.409Z,1.75
2018-12-10T11:54:31.369Z,1.60
2018-12-10T11:55:35.210Z,1.80
2018-12-10T11:56:39.310Z,2.08
2018-12-10T11:57:43.411Z,2.67
2018-12-10T11:58:47.674Z,2.30
2018-12-10T11:59:51.429Z,2.83
2018-12-10T12:00:55.310Z,2.42
2018-12-10T12:01:59.120Z,2.17
2018-12-10T12:03:03.305Z,2.50
2018-12-10T12:04:07.337Z,2.87
2018-12-10T12:05:11.317Z,2.27
2018-12-10T12:06:15.096Z,2.00
2018-12-10T12:07:19.009Z,2.52
2018-12-10T12:08:23.709Z,2.50
2018-12-10T12:09:27.735Z,2.25
2018-12-10T12:10:32.138Z,3.20
2018-12-10T12:11:35.904Z,2.30
2018-12-10T12:12:39.835Z,2.33
2018-12-10T12:13:44.562Z,2.60
2018-12-10T12:14:48.415Z,3.35
2018-12-10T12:15:52.351Z,2.10
2018-12-10T12:16:56.222Z,2.47
2018-12-10T12:18:00.518Z,2.35
2018-12-10T12:19:11.302Z,3.35
2018-12-10T12:20:10.532Z,2.33
2018-12-10T12:21:14.627Z,2.20
2018-12-10T12:22:19.104Z,2.55
2018-12-10T12:23:23.234Z,2.08
2018-12-10T12:24:27.023Z,2.87
2018-12-10T12:25:31.111Z,2.58
2018-12-10T12:26:35.028Z,2.37
2018-12-10T12:27:39.300Z,2.40
2018-12-10T12:28:43.841Z,2.52
2018-12-10T12:29:48.222Z,2.55
2018-12-10T12:30:52.661Z,2.35
2018-12-10T12:31:56.520Z,2.80
2018-12-10T12:33:00.962Z,2.37
2018-12-10T12:34:05.581Z,3.10
2018-12-10T12:35:10.401Z,3.00
2018-12-10T12:36:15.210Z,2.80
2018-12-10T12:37:19.300Z,3.33
2018-12-10T12:38:23.369Z,3.22
2018-12-10T12:39:27.722Z,2.98
2018-12-10T12:40:31.907Z,3.40
2018-12-10T12:41:36.555Z,2.83
2018-12-10T12:42:40.956Z,3.25
2018-12-10T12:43:45.107Z,3.35
2018-12-10T12:44:49.598Z,3.37
2018-12-10T12:45:53.877Z,3.20
2018-12-10T12:46:57.967Z,3.08
2018-12-10T12:48:02.813Z,2.50
2018-12-10T12:49:07.012Z,3.02
2018-12-10T12:50:11.076Z,3.10
2018-12-10T12:51:15.069Z,2.62
2018-12-10T12:52:19.251Z,3.40
2018-12-10T12:53:23.338Z,4.08
2018-12-10T12:54:27.437Z,3.15
2018-12-10T12:55:31.591Z,3.62
2018-12-10T12:56:35.499Z,3.92
2018-12-10T12:57:39.305Z,4.00
2018-12-10T12:58:43.318Z,3.67
2018-12-10T12:59:47.708Z,3.25
2018-12-10T13:00:52.034Z,3.72
2018-12-10T13:01:56.005Z,3.52
2018-12-10T13:03:00.066Z,2.70
2018-12-10T13:04:05.473Z,3.00
2018-12-10T13:05:09.632Z,3.05
2018-12-10T13:06:13.751Z,3.10
2018-12-10T13:07:17.685Z,3.37
2018-12-10T13:08:21.883Z,3.15
2018-12-10T13:09:25.839Z,3.12
2018-12-10T13:10:29.712Z,4.85
2018-12-10T13:11:33.811Z,3.33
2018-12-10T13:12:38.272Z,3.10
2018-12-10T13:13:42.361Z,3.00
2018-12-10T13:14:46.584Z,2.80
2018-12-10T13:15:50.802Z,2.72
2018-12-10T13:16:54.675Z,5.62
2018-12-10T13:17:58.761Z,2.70
2018-12-10T13:19:02.850Z,2.75
2018-12-10T13:20:06.695Z,2.67
2018-12-10T13:21:10.683Z,3.08
2018-12-10T13:22:14.353Z,2.10
2018-12-10T13:23:18.607Z,2.70
2018-12-10T13:24:22.870Z,3.00
2018-12-10T13:25:27.080Z,2.60
2018-12-10T13:26:31.325Z,2.37
2018-12-10T13:27:35.135Z,2.62
2018-12-10T13:28:39.776Z,2.65
2018-12-10T13:29:44.841Z,2.35
2018-12-10T13:30:49.327Z,2.83
2018-12-10T13:31:54.042Z,2.40
2018-12-10T13:32:57.977Z,2.80
2018-12-10T13:34:01.699Z,1.92
2018-12-10T13:35:05.499Z,2.98
2018-12-10T13:36:09.584Z,2.70
2018-12-10T13:37:13.728Z,2.45
2018-12-10T13:38:17.831Z,4.65
2018-12-10T13:39:21.721Z,2.98
2018-12-10T13:40:25.967Z,2.85
2018-12-10T13:41:30.648Z,2.95
2018-12-10T13:42:34.936Z,2.62
2018-12-10T13:43:39.167Z,2.85
2018-12-10T13:44:43.342Z,1.95
2018-12-10T13:45:47.524Z,2.45
2018-12-10T13:46:51.657Z,2.40
2018-12-10T13:47:55.711Z,2.35
2018-12-10T13:49:00.269Z,2.83
2018-12-10T13:50:04.843Z,2.87
2018-12-10T13:51:08.978Z,2.55
2018-12-10T13:52:13.440Z,2.47
2018-12-10T13:53:17.806Z,2.77
2018-12-10T13:54:21.796Z,2.37
2018-12-10T13:55:28.839Z,2.83
2018-12-10T13:56:31.607Z,2.17
2018-12-10T13:57:35.513Z,2.72
2018-12-10T13:58:39.730Z,2.33
2018-12-10T13:59:43.679Z,2.20
2018-12-10T14:00:51.045Z,2.00
2018-12-10T14:01:54.178Z,1.80
2018-12-10T14:03:00.139Z,1.98
2018-12-10T14:04:05.854Z,2.33
2018-12-10T14:05:11.581Z,1.80
2018-12-10T14:06:15.584Z,2.70
2018-12-10T14:07:19.473Z,2.08
2018-12-10T14:08:23.965Z,1.82
2018-12-10T14:09:27.569Z,2.15
2018-12-10T14:10:31.792Z,2.60
2018-12-10T14:11:36.161Z,2.60
2018-12-10T14:12:40.075Z,2.12
2018-12-10T14:13:44.045Z,2.45
2018-12-10T14:14:47.878Z,2.20
2018-12-10T14:15:52.216Z,1.80
2018-12-10T14:16:56.359Z,1.87
2018-12-10T14:18:00.191Z,2.47